createdAt,value
2017-08-24T00:10:47.592Z,8.40
2017-08-24T00:13:17.025Z,7.50
2017-08-24T00:15:45.277Z,6.33
2017-08-24T00:18:13.575Z,5.20
2017-08-24T00:20:41.807Z,9.67
2017-08-24T00:23:10.950Z,7.40
2017-08-24T00:25:39.192Z,5.60
2017-08-24T00:28:07.477Z,7.07
2017-08-24T00:30:35.694Z,8.60
2017-08-24T00:33:04.050Z,5.33
2017-08-24T00:35:32.257Z,5.10
2017-08-24T00:38:00.688Z,6.73
2017-08-24T00:40:28.941Z,4.90
2017-08-24T00:42:57.515Z,5.97
2017-08-24T00:45:25.698Z,4.93
2017-08-24T00:47:53.943Z,5.70
2017-08-24T00:50:22.167Z,5.93
2017-08-24T00:52:50.459Z,4.70
2017-08-24T00:55:18.692Z,4.90
2017-08-24T00:57:46.842Z,5.90
2017-08-24T01:00:15.028Z,5.43
2017-08-24T01:02:43.210Z,5.60
2017-08-24T01:05:11.404Z,5.37
2017-08-24T01:07:39.616Z,5.37
2017-08-24T01:10:08.148Z,6.10
2017-08-24T01:12:36.400Z,5.53
2017-08-24T01:15:05.212Z,6.63
2017-08-24T01:17:34.047Z,6.00
2017-08-24T01:20:02.270Z,8.20
2017-08-24T01:22:30.631Z,8.27
2017-08-24T01:24:58.996Z,7.83
2017-08-24T01:27:27.939Z,5.53
2017-08-24T01:29:56.144Z,10.60
2017-08-24T01:32:24.948Z,8.63
2017-08-24T01:34:53.393Z,5.80
2017-08-24T01:37:21.757Z,5.47
2017-08-24T01:39:50.046Z,7.27
2017-08-24T01:42:18.240Z,5.83
2017-08-24T01:44:46.568Z,5.90
2017-08-24T01:47:15.564Z,5.80
2017-08-24T01:49:43.785Z,5.17
2017-08-24T01:52:12.010Z,6.60
2017-08-24T01:54:40.168Z,5.53
2017-08-24T01:57:08.372Z,4.80
2017-08-24T01:59:36.667Z,7.20
2017-08-24T02:02:04.863Z,6.00
2017-08-24T02:04:33.077Z,6.70
2017-08-24T02:07:01.297Z,5.43
2017-08-24T02:09:29.539Z,6.77
2017-08-24T02:11:57.729Z,6.10
2017-08-24T02:14:25.958Z,6.27
2017-08-24T02:16:54.204Z,6.20
2017-08-24T02:19:22.406Z,7.00
2017-08-24T02:21:50.586Z,6.77
2017-08-24T02:24:18.844Z,7.80
2017-08-24T02:26:47.103Z,6.00
2017-08-24T02:29:15.298Z,5.67
2017-08-24T02:31:43.508Z,6.80
2017-08-24T02:34:11.688Z,6.40
2017-08-24T02:36:40.261Z,5.80
2017-08-24T02:41:43.082Z,8.57
2017-08-24T02:44:11.241Z,7.67
2017-08-24T02:46:39.666Z,6.50
2017-08-24T02:49:07.944Z,5.10
2017-08-24T02:51:36.211Z,6.30
2017-08-24T02:54:05.103Z,7.30
2017-08-24T02:56:33.889Z,6.90
2017-08-24T02:59:02.098Z,6.07
2017-08-24T03:01:30.321Z,6.47
2017-08-24T03:03:58.496Z,6.30
2017-08-24T03:06:26.688Z,11.10
2017-08-24T03:08:54.968Z,7.10
2017-08-24T03:11:23.248Z,6.10
2017-08-24T03:13:51.514Z,6.77
2017-08-24T03:16:19.771Z,6.20
2017-08-24T03:18:48.086Z,6.10
2017-08-24T03:21:16.955Z,6.60
2017-08-24T03:23:45.131Z,6.77
2017-08-24T03:26:13.386Z,7.20
2017-08-24T03:28:41.564Z,5.00
2017-08-24T03:31:10.407Z,5.30
2017-08-24T03:33:38.716Z,6.73
2017-08-24T03:36:07.061Z,5.57
2017-08-24T03:38:35.302Z,4.80
2017-08-24T03:41:03.510Z,5.50
2017-08-24T03:43:31.749Z,5.20
2017-08-24T03:45:59.936Z,5.57
2017-08-24T03:48:28.190Z,7.83
2017-08-24T03:50:56.408Z,6.07
2017-08-24T03:53:24.588Z,6.40
2017-08-24T03:55:52.821Z,6.17
2017-08-24T03:58:21.017Z,7.07
2017-08-24T04:00:50.214Z,4.60
2017-08-24T04:03:18.389Z,6.07
2017-08-24T04:05:46.559Z,7.23
2017-08-24T04:08:14.754Z,5.03
2017-08-24T04:10:42.959Z,6.07
2017-08-24T04:13:11.153Z,7.20
2017-08-24T04:15:39.379Z,6.33
2017-08-24T04:18:07.532Z,6.10
2017-08-24T04:20:35.857Z,7.50
2017-08-24T04:23:04.007Z,5.77
2017-08-24T04:25:32.201Z,6.10
2017-08-24T04:28:00.388Z,11.10
2017-08-24T04:30:28.617Z,5.30
2017-08-24T04:32:56.813Z,6.40
2017-08-24T04:35:25.048Z,7.07
2017-08-24T04:37:53.232Z,4.93
2017-08-24T04:40:22.133Z,5.63
2017-08-24T04:42:50.318Z,5.20
2017-08-24T04:45:18.622Z,5.53
2017-08-24T04:47:47.444Z,13.83
2017-08-24T04:50:15.647Z,5.50
2017-08-24T04:52:43.808Z,5.23
2017-08-24T04:55:12.013Z,5.00
2017-08-24T04:57:40.374Z,5.30
2017-08-24T05:00:09.190Z,4.73
2017-08-24T05:02:38.504Z,5.73
2017-08-24T05:05:06.861Z,6.10
2017-08-24T05:07:35.689Z,5.33
2017-08-24T05:10:03.924Z,6.87
2017-08-24T05:12:32.133Z,8.70
2017-08-24T05:15:00.321Z,5.00
2017-08-24T05:17:28.461Z,5.53
2017-08-24T05:19:56.621Z,6.30
2017-08-24T05:22:25.012Z,6.20
2017-08-24T05:24:53.153Z,5.33
2017-08-24T05:27:21.360Z,4.97
2017-08-24T05:29:49.559Z,8.70
2017-08-24T05:32:17.709Z,7.20
2017-08-24T05:34:45.888Z,6.27
2017-08-24T05:37:14.072Z,4.43
2017-08-24T05:39:42.360Z,4.20
2017-08-24T05:42:10.540Z,5.10
2017-08-24T05:44:38.779Z,4.10
2017-08-24T05:47:07.123Z,4.10
2017-08-24T05:49:35.507Z,3.63
2017-08-24T05:52:03.715Z,5.20
2017-08-24T05:54:32.018Z,4.20
2017-08-24T05:57:00.233Z,3.63
2017-08-24T05:59:28.461Z,3.83
2017-08-24T06:01:56.595Z,4.20
2017-08-24T06:04:24.856Z,4.97
2017-08-24T06:06:53.360Z,5.10
2017-08-24T06:09:22.261Z,6.60
2017-08-24T06:11:50.453Z,4.67
2017-08-24T06:14:18.651Z,4.67
2017-08-24T06:16:47.003Z,4.17
2017-08-24T06:19:15.156Z,6.53
2017-08-24T06:21:43.929Z,6.60
2017-08-24T06:24:12.124Z,4.80
2017-08-24T06:26:40.290Z,4.50
2017-08-24T06:29:08.698Z,3.47
2017-08-24T06:31:36.843Z,3.57
2017-08-24T06:34:05.207Z,5.77
2017-08-24T06:36:33.686Z,5.73
2017-08-24T06:39:01.978Z,5.53
2017-08-24T06:41:30.333Z,4.60
2017-08-24T06:43:59.378Z,4.10
2017-08-24T06:46:28.295Z,5.07
2017-08-24T06:48:57.696Z,3.70
2017-08-24T06:51:26.167Z,4.10
2017-08-24T06:53:55.304Z,6.20
2017-08-24T06:56:26.030Z,4.27
2017-08-24T06:58:54.233Z,4.70
2017-08-24T07:01:22.819Z,5.97
2017-08-24T07:03:51.091Z,3.83
2017-08-24T07:06:20.772Z,3.57
2017-08-24T07:08:49.072Z,4.20
2017-08-24T07:11:17.264Z,7.03
2017-08-24T07:13:45.470Z,4.43
2017-08-24T07:16:13.719Z,4.37
2017-08-24T07:18:41.908Z,3.73
2017-08-24T07:21:10.238Z,3.43
2017-08-24T07:23:38.585Z,5.93
2017-08-24T07:26:06.918Z,4.40
2017-08-24T07:28:35.710Z,8.13
2017-08-24T07:31:04.009Z,4.20
2017-08-24T07:33:32.955Z,2.60
2017-08-24T07:36:01.174Z,3.40
2017-08-24T07:38:29.342Z,3.50
2017-08-24T07:40:57.931Z,4.63
2017-08-24T07:43:26.394Z,6.77
2017-08-24T07:45:54.547Z,4.93
2017-08-24T07:48:22.710Z,3.40
2017-08-24T07:50:50.888Z,5.10
2017-08-24T07:53:19.092Z,3.67
2017-08-24T07:55:47.321Z,3.33
2017-08-24T07:58:15.578Z,3.13
2017-08-24T08:00:43.819Z,5.23
2017-08-24T08:03:12.011Z,5.27
2017-08-24T08:05:40.203Z,7.50
2017-08-24T08:08:08.387Z,2.97
2017-08-24T08:10:36.618Z,4.97
2017-08-24T08:13:04.842Z,3.27
2017-08-24T08:15:33.373Z,4.73
2017-08-24T08:18:01.510Z,5.67
2017-08-24T08:20:29.745Z,5.47
2017-08-24T08:22:57.951Z,3.73
2017-08-24T08:25:26.249Z,5.67
2017-08-24T08:27:54.446Z,4.30
2017-08-24T08:30:22.616Z,3.10
2017-08-24T08:32:50.798Z,3.50
2017-08-24T08:35:18.968Z,6.43
2017-08-24T08:37:47.143Z,4.80
2017-08-24T08:40:15.347Z,3.90
2017-08-24T08:42:43.579Z,5.30
2017-08-24T08:45:12.435Z,3.63
2017-08-24T08:47:41.606Z,3.67
2017-08-24T08:50:09.847Z,4.63
2017-08-24T08:52:38.090Z,3.83
2017-08-24T08:55:06.247Z,4.47
2017-08-24T08:57:35.177Z,5.30
2017-08-24T09:00:03.332Z,4.97
2017-08-24T09:02:31.604Z,6.60
2017-08-24T09:04:59.788Z,4.03
2017-08-24T09:07:28.065Z,5.40
2017-08-24T09:09:56.224Z,4.17
2017-08-24T09:12:24.503Z,3.93
2017-08-24T09:14:53.339Z,6.50
2017-08-24T09:17:21.513Z,4.17
2017-08-24T09:19:49.651Z,4.00
2017-08-24T09:22:17.944Z,4.73
2017-08-24T09:24:46.200Z,4.50
2017-08-24T09:27:14.328Z,4.40
2017-08-24T09:29:42.543Z,5.27
2017-08-24T09:32:10.762Z,3.83
2017-08-24T09:34:39.544Z,5.20
2017-08-24T09:37:08.645Z,4.20
2017-08-24T09:39:36.807Z,3.93
2017-08-24T09:42:05.055Z,4.67
2017-08-24T09:44:33.503Z,3.50
2017-08-24T09:47:01.660Z,4.27
2017-08-24T09:49:30.588Z,6.70
2017-08-24T09:51:58.865Z,5.97
2017-08-24T09:54:27.068Z,7.73
2017-08-24T09:56:55.599Z,5.77
2017-08-24T09:59:24.512Z,6.10
2017-08-24T10:01:53.382Z,6.07
2017-08-24T10:04:21.611Z,4.10
2017-08-24T10:06:50.008Z,4.50
2017-08-24T10:09:18.230Z,4.20
2017-08-24T10:11:46.443Z,4.93
2017-08-24T10:14:14.634Z,7.83
2017-08-24T10:16:42.830Z,4.40
2017-08-24T10:19:11.015Z,4.67
2017-08-24T10:21:39.975Z,5.03
2017-08-24T10:24:08.209Z,6.43
2017-08-24T10:26:36.514Z,4.90
2017-08-24T10:29:04.801Z,4.60
2017-08-24T10:31:33.657Z,7.43
2017-08-24T10:34:01.839Z,4.27
2017-08-24T10:36:30.199Z,5.07
2017-08-24T10:38:58.450Z,4.60
2017-08-24T10:41:26.627Z,4.80
2017-08-24T10:43:54.831Z,6.27
2017-08-24T10:46:23.027Z,7.40
2017-08-24T10:48:51.433Z,5.37
2017-08-24T10:51:19.652Z,5.73
2017-08-24T10:53:48.066Z,5.30
2017-08-24T10:56:16.444Z,4.00
2017-08-24T10:58:44.624Z,4.90
2017-08-24T11:01:14.327Z,9.07
2017-08-24T11:03:42.592Z,4.50
2017-08-24T11:06:10.895Z,6.10
2017-08-24T11:08:39.567Z,4.43
2017-08-24T11:11:07.882Z,4.70
2017-08-24T11:13:36.795Z,5.97
2017-08-24T11:16:05.758Z,7.30
2017-08-24T11:18:34.722Z,5.30
2017-08-24T11:21:03.041Z,8.03
2017-08-24T11:23:31.307Z,9.17
2017-08-24T11:25:59.566Z,7.47
2017-08-24T11:28:28.537Z,13.67
2017-08-24T11:30:57.422Z,6.80
2017-08-24T11:33:26.180Z,5.60
2017-08-24T11:35:55.111Z,10.03
2017-08-24T11:38:23.411Z,6.43
2017-08-24T11:40:52.212Z,7.00
2017-08-24T11:43:20.961Z,7.30
2017-08-24T11:45:49.497Z,7.03
2017-08-24T11:48:17.669Z,7.73
2017-08-24T11:50:45.911Z,8.17
2017-08-24T11:53:14.130Z,7.17
2017-08-24T11:55:43.030Z,9.90
2017-08-24T11:58:11.263Z,6.83
2017-08-24T12:00:39.452Z,6.67
2017-08-24T12:03:07.811Z,7.80
2017-08-24T12:05:36.032Z,9.00
2017-08-24T12:08:04.222Z,8.90
2017-08-24T12:10:32.400Z,7.20
2017-08-24T12:13:03.666Z,9.70
2017-08-24T12:15:31.954Z,8.50
2017-08-24T12:18:00.110Z,9.40
2017-08-24T12:20:28.312Z,10.23
2017-08-24T12:22:56.458Z,10.73
2017-08-24T12:25:24.673Z,10.60
2017-08-24T12:27:53.226Z,9.83
2017-08-24T12:30:21.391Z,9.67
2017-08-24T12:32:49.869Z,10.90
2017-08-24T12:35:18.247Z,9.97
2017-08-24T12:37:47.153Z,10.30
2017-08-24T12:40:15.406Z,12.40
2017-08-24T12:42:44.289Z,12.03
2017-08-24T12:45:13.080Z,13.70
2017-08-24T12:47:41.452Z,13.70
2017-08-24T12:50:09.966Z,12.80
2017-08-24T12:52:41.196Z,14.83
2017-08-24T12:55:10.261Z,15.00
2017-08-24T12:57:38.607Z,16.47
2017-08-24T13:00:06.830Z,18.00
2017-08-24T13:02:35.113Z,19.17
2017-08-24T13:05:03.325Z,19.57
2017-08-24T13:07:31.529Z,21.33
2017-08-24T13:09:59.735Z,17.53
2017-08-24T13:12:27.912Z,17.70
2017-08-24T13:14:57.291Z,19.73
2017-08-24T13:17:25.497Z,20.37
2017-08-24T13:19:53.810Z,21.30
2017-08-24T13:22:22.041Z,24.53
2017-08-24T13:24:50.490Z,25.53
2017-08-24T13:27:18.734Z,27.83
2017-08-24T13:29:47.285Z,28.00
2017-08-24T13:32:16.296Z,34.23
2017-08-24T13:34:45.187Z,36.63
2017-08-24T13:37:13.450Z,35.00
2017-08-24T13:39:41.843Z,34.97
2017-08-24T13:42:10.083Z,30.23
2017-08-24T13:44:38.553Z,24.50
2017-08-24T13:47:06.815Z,24.23
2017-08-24T13:49:35.128Z,26.70
2017-08-24T13:52:03.415Z,24.10
2017-08-24T13:54:31.672Z,28.80
2017-08-24T13:56:59.968Z,28.07
2017-08-24T13:59:28.135Z,21.97
2017-08-24T14:01:56.398Z,19.03
2017-08-24T14:04:24.591Z,25.30
2017-08-24T14:06:52.778Z,19.33
2017-08-24T14:09:21.004Z,18.13
2017-08-24T14:11:50.227Z,19.00
2017-08-24T14:14:19.120Z,20.53
2017-08-24T14:16:47.382Z,19.10
2017-08-24T14:19:15.666Z,25.37
2017-08-24T14:21:43.948Z,22.83
2017-08-24T14:24:12.163Z,18.90
2017-08-24T14:26:40.424Z,15.90
2017-08-24T14:29:09.363Z,19.03
2017-08-24T14:31:38.687Z,24.10
2017-08-24T14:34:07.000Z,18.27
2017-08-24T14:36:35.254Z,22.90
2017-08-24T14:39:04.319Z,20.10
2017-08-24T14:41:32.505Z,20.60
2017-08-24T14:44:00.782Z,18.30
2017-08-24T14:46:29.149Z,22.50
2017-08-24T14:48:57.436Z,17.43
2017-08-24T14:51:25.627Z,22.37
2017-08-24T14:53:53.916Z,19.30
2017-08-24T14:56:22.846Z,16.57
2017-08-24T14:58:51.175Z,11.50
2017-08-24T15:01:19.419Z,13.67
2017-08-24T15:03:47.792Z,7.90
2017-08-24T15:06:16.035Z,9.60
2017-08-24T15:08:44.230Z,8.40
2017-08-24T15:11:12.441Z,7.33
2017-08-24T15:13:40.623Z,7.20
2017-08-24T15:16:08.990Z,6.70
2017-08-24T15:18:37.269Z,5.20
2017-08-24T15:21:05.456Z,7.30
2017-08-24T15:23:33.612Z,8.17
2017-08-24T15:26:01.834Z,7.40
2017-08-24T15:28:30.057Z,9.27
2017-08-24T15:30:58.234Z,2.97
2017-08-24T15:33:27.127Z,4.47
2017-08-24T15:35:55.321Z,9.27
2017-08-24T15:38:23.598Z,5.20
2017-08-24T15:40:52.162Z,12.07
2017-08-24T15:43:21.166Z,6.50
2017-08-24T15:45:49.364Z,5.57
2017-08-24T15:48:17.501Z,6.73
2017-08-24T15:50:45.741Z,5.80
2017-08-24T15:53:14.670Z,8.90
2017-08-24T15:55:42.840Z,10.50
2017-08-24T15:58:11.059Z,5.77
2017-08-24T16:00:40.712Z,5.70
2017-08-24T16:03:08.974Z,7.40
2017-08-24T16:05:37.166Z,5.67
2017-08-24T16:08:05.362Z,4.20
2017-08-24T16:10:33.931Z,4.77
2017-08-24T16:13:02.110Z,3.97
2017-08-24T16:15:30.310Z,4.77
2017-08-24T16:17:58.444Z,6.43
2017-08-24T16:20:26.722Z,3.73
2017-08-24T16:22:55.116Z,6.23
2017-08-24T16:25:23.889Z,4.07
2017-08-24T16:27:52.077Z,4.03
2017-08-24T16:30:20.229Z,5.30
2017-08-24T16:32:50.687Z,4.90
2017-08-24T16:35:18.941Z,2.67
2017-08-24T16:37:47.118Z,2.43
2017-08-24T16:40:15.411Z,7.50
2017-08-24T16:42:45.385Z,3.60
2017-08-24T16:45:13.572Z,7.23
2017-08-24T16:47:41.793Z,6.00
2017-08-24T16:50:10.001Z,10.30
2017-08-24T16:52:38.175Z,10.20
2017-08-24T16:55:06.935Z,12.50
2017-08-24T16:57:35.140Z,8.60
2017-08-24T17:00:03.383Z,6.83
2017-08-24T17:02:31.694Z,13.30
2017-08-24T17:05:01.333Z,5.30
2017-08-24T17:07:29.804Z,5.00
2017-08-24T17:09:58.668Z,10.33
2017-08-24T17:12:27.755Z,6.40
2017-08-24T17:14:56.152Z,3.27
2017-08-24T17:17:24.331Z,8.90
2017-08-24T17:19:53.064Z,6.20
2017-08-24T17:22:21.276Z,7.50
2017-08-24T17:24:49.485Z,5.80
2017-08-24T17:27:17.699Z,5.50
2017-08-24T17:29:45.888Z,5.20
2017-08-24T17:32:14.042Z,5.70
2017-08-24T17:34:42.206Z,3.80
2017-08-24T17:37:10.383Z,4.80
2017-08-24T17:39:38.524Z,4.93
2017-08-24T17:42:06.753Z,3.40
2017-08-24T17:44:35.006Z,6.43
2017-08-24T17:47:03.188Z,7.60
2017-08-24T17:49:32.433Z,5.03
2017-08-24T17:52:00.660Z,2.53
2017-08-24T17:54:28.838Z,3.63
2017-08-24T17:56:57.030Z,3.40
2017-08-24T17:59:25.235Z,3.70
2017-08-24T18:01:53.757Z,4.20
2017-08-24T18:04:21.926Z,4.13
2017-08-24T18:06:50.816Z,4.03
2017-08-24T18:09:19.187Z,3.97
2017-08-24T18:11:47.360Z,4.67
2017-08-24T18:14:15.557Z,6.50
2017-08-24T18:16:43.793Z,4.97
2017-08-24T18:19:12.062Z,4.60
2017-08-24T18:21:40.214Z,4.20
2017-08-24T18:24:08.405Z,5.67
2017-08-24T18:26:36.572Z,3.93
2017-08-24T18:29:04.747Z,2.27
2017-08-24T18:31:32.936Z,4.57
2017-08-24T18:34:01.130Z,4.90
2017-08-24T18:36:29.303Z,4.67
2017-08-24T18:38:57.518Z,5.20
2017-08-24T18:41:25.704Z,3.87
2017-08-24T18:43:53.925Z,3.80
2017-08-24T18:46:22.056Z,2.93
2017-08-24T18:48:50.281Z,4.20
2017-08-24T18:51:18.505Z,2.90
2017-08-24T18:53:46.693Z,3.77
2017-08-24T18:56:14.907Z,2.60
2017-08-24T18:58:43.230Z,2.60
2017-08-24T19:01:11.365Z,4.03
2017-08-24T19:03:39.685Z,4.47
2017-08-24T19:06:08.195Z,2.60
2017-08-24T19:08:36.464Z,18.47
2017-08-24T19:11:04.725Z,14.93
2017-08-24T19:13:32.948Z,21.03
2017-08-24T19:16:01.320Z,20.10
2017-08-24T19:18:29.554Z,12.43
2017-08-24T19:20:57.871Z,21.93
2017-08-24T19:23:26.013Z,29.27
2017-08-24T19:25:54.193Z,30.57
2017-08-24T19:28:22.396Z,18.27
2017-08-24T19:30:50.563Z,6.80
2017-08-24T19:33:18.761Z,11.30
2017-08-24T19:35:46.950Z,5.43
2017-08-24T19:38:15.121Z,6.63
2017-08-24T19:40:43.343Z,3.23
2017-08-24T19:43:11.571Z,3.70
2017-08-24T19:45:39.738Z,6.00
2017-08-24T19:48:07.987Z,3.40
2017-08-24T19:50:36.313Z,3.93
2017-08-24T19:53:04.476Z,6.20
2017-08-24T19:55:32.674Z,6.83
2017-08-24T19:58:00.865Z,6.30
2017-08-24T20:00:29.048Z,4.87
2017-08-24T20:02:57.226Z,6.17
2017-08-24T20:05:25.533Z,4.20
2017-08-24T20:07:53.783Z,7.97
2017-08-24T20:10:22.129Z,4.37
2017-08-24T20:12:50.329Z,6.53
2017-08-24T20:15:18.660Z,6.10
2017-08-24T20:17:46.826Z,4.20
2017-08-24T20:20:14.993Z,8.20
2017-08-24T20:22:43.291Z,5.63
2017-08-24T20:25:11.456Z,5.00
2017-08-24T20:27:39.640Z,4.43
2017-08-24T20:30:07.818Z,6.97
2017-08-24T20:32:36.231Z,5.90
2017-08-24T20:35:04.662Z,6.23
2017-08-24T20:37:32.997Z,7.27
2017-08-24T20:40:01.234Z,7.87
2017-08-24T20:42:29.403Z,5.63
2017-08-24T20:44:57.610Z,4.93
2017-08-24T20:47:25.764Z,4.83
2017-08-24T20:49:53.928Z,3.80
2017-08-24T20:52:22.103Z,7.73
2017-08-24T20:54:50.301Z,4.63
2017-08-24T20:57:18.592Z,7.37
2017-08-24T20:59:47.686Z,7.10
2017-08-24T21:02:15.919Z,8.47
2017-08-24T21:04:44.194Z,7.03
2017-08-24T21:07:13.162Z,5.40
2017-08-24T21:09:41.544Z,5.60
2017-08-24T21:12:10.364Z,5.00
2017-08-24T21:14:38.607Z,7.37
2017-08-24T21:17:06.776Z,5.30
2017-08-24T21:19:34.902Z,11.87
2017-08-24T21:22:03.126Z,5.40
2017-08-24T21:24:31.474Z,6.13
2017-08-24T21:26:59.812Z,6.27
2017-08-24T21:29:28.599Z,3.33
2017-08-24T21:31:56.990Z,8.00
2017-08-24T21:34:25.215Z,4.63
2017-08-24T21:36:53.365Z,5.73
2017-08-24T21:39:21.577Z,4.97
2017-08-24T21:41:49.768Z,12.33
2017-08-24T21:44:17.970Z,8.20
2017-08-24T21:46:46.248Z,7.40
2017-08-24T21:49:14.437Z,7.07
2017-08-24T21:51:43.310Z,8.60
2017-08-24T21:54:11.561Z,8.20
2017-08-24T21:56:39.827Z,5.43
2017-08-24T21:59:08.152Z,7.80
2017-08-24T22:01:37.006Z,3.90
2017-08-24T22:04:05.174Z,8.70
2017-08-24T22:06:33.454Z,7.57
2017-08-24T22:09:02.142Z,7.20
2017-08-24T22:11:30.389Z,5.03
2017-08-24T22:13:58.602Z,8.90
2017-08-24T22:16:27.174Z,8.90
2017-08-24T22:18:55.959Z,8.53
2017-08-24T22:21:24.231Z,6.73
2017-08-24T22:23:52.494Z,9.73
2017-08-24T22:26:20.724Z,8.03
2017-08-24T22:28:49.831Z,7.87
2017-08-24T22:31:19.323Z,5.53
2017-08-24T22:33:47.586Z,5.60
2017-08-24T22:36:15.850Z,10.93
2017-08-24T22:38:44.153Z,5.93
2017-08-24T22:41:12.419Z,6.37
2017-08-24T22:43:41.311Z,4.97
2017-08-24T22:46:09.622Z,6.40
2017-08-24T22:48:37.837Z,8.47
2017-08-24T22:51:07.975Z,7.60
2017-08-24T22:56:40.764Z,9.57
2017-08-24T22:59:16.086Z,6.23
2017-08-24T23:01:50.292Z,6.60
2017-08-24T23:04:19.218Z,7.83
2017-08-24T23:06:47.514Z,9.73
2017-08-24T23:09:16.018Z,12.07
2017-08-24T23:11:44.269Z,12.10
2017-08-24T23:14:12.512Z,4.90
2017-08-24T23:16:40.894Z,9.60
2017-08-24T23:19:09.202Z,6.03
2017-08-24T23:21:37.426Z,7.80
2017-08-24T23:24:06.255Z,6.70
2017-08-24T23:26:35.153Z,8.10
2017-08-24T23:29:03.375Z,9.43
2017-08-24T23:31:32.418Z,6.07
2017-08-24T23:34:00.990Z,4.40
2017-08-24T23:36:29.430Z,6.63
2017-08-24T23:38:57.762Z,6.90
2017-08-24T23:41:26.142Z,4.27
2017-08-24T23:43:54.627Z,9.00
2017-08-24T23:46:22.840Z,9.37
2017-08-24T23:48:51.054Z,5.73
2017-08-24T23:51:19.342Z,4.30
2017-08-24T23:53:47.642Z,8.30
2017-08-24T23:56:16.284Z,6.23
2017-08-24T23:58:44.584Z,9.17
